Time;durP1;ratioP1;P1;durP2;ratioP2;P2;SDS_P1;SDS_P2;PMS_P1;PMS_P2;Temp;Humidity;BMP_temperature;BMP_pressure;BME280_temperature;BME280_humidity;BME280_pressure;Samples;Min_cycle;Max_cycle;Signal;HPM_P1;HPM_P2
2023/08/26 00:01:36;;;;;;;311.47;299.83;;;18.60;99.90;;;;;;4975131;28;20477;-73
2023/08/26 00:04:03;;;;;;;308.77;297.23;;;18.60;99.90;;;;;;4974910;28;20462;-73
2023/08/26 00:06:30;;;;;;;311.40;299.90;;;18.50;99.90;;;;;;4975199;28;20578;-73
2023/08/26 00:08:57;;;;;;;311.60;300.10;;;18.50;99.90;;;;;;4974926;28;20455;-73
2023/08/26 00:11:24;;;;;;;310.53;299.03;;;18.50;99.90;;;;;;4975152;28;20451;-73
2023/08/26 00:13:52;;;;;;;311.10;299.60;;;18.50;99.90;;;;;;4974716;28;20479;-73
2023/08/26 00:16:19;;;;;;;314.50;302.90;;;18.40;99.90;;;;;;4975077;28;20462;-73
2023/08/26 00:18:47;;;;;;;313.83;302.33;;;18.40;99.90;;;;;;4974689;28;20487;-73
2023/08/26 00:21:14;;;;;;;326.60;314.70;;;18.40;99.90;;;;;;4974172;28;20451;-73
2023/08/26 00:23:41;;;;;;;317.47;305.87;;;18.30;99.90;;;;;;4974915;28;20505;-73
2023/08/26 00:26:09;;;;;;;319.90;308.20;;;18.30;99.90;;;;;;4974637;28;20458;-73
2023/08/26 00:28:36;;;;;;;315.10;303.60;;;18.30;99.90;;;;;;4974668;28;20456;-73
2023/08/26 00:31:04;;;;;;;318.33;306.93;;;18.20;99.90;;;;;;4974672;28;20838;-73
2023/08/26 00:33:31;;;;;;;324.20;312.60;;;18.20;99.90;;;;;;4974351;28;20831;-73
2023/08/26 00:35:58;;;;;;;333.93;322.03;;;18.20;99.90;;;;;;4974778;28;20538;-73
2023/08/26 00:38:25;;;;;;;330.67;318.73;;;18.20;99.90;;;;;;4974578;28;20451;-73
2023/08/26 00:40:52;;;;;;;328.30;316.70;;;18.20;99.90;;;;;;4974523;28;20461;-73
2023/08/26 00:43:19;;;;;;;362.90;350.00;;;18.20;99.90;;;;;;4974402;28;20451;-73
2023/08/26 00:45:47;;;;;;;353.27;340.57;;;18.10;99.90;;;;;;4974038;28;20467;-74
2023/08/26 00:48:16;;;;;;;323.10;311.80;;;18.10;99.90;;;;;;4974641;28;20459;-73
2023/08/26 00:50:44;;;;;;;311.83;301.17;;;18.00;99.90;;;;;;4974219;28;20455;-73
2023/08/26 00:53:12;;;;;;;303.53;293.23;;;17.80;99.90;;;;;;4974023;28;20514;-73
2023/08/26 00:55:41;;;;;;;297.07;287.07;;;17.70;99.90;;;;;;4974081;28;20497;-74
2023/08/26 00:58:08;;;;;;;260.20;251.60;;;17.60;99.90;;;;;;4974000;28;20451;-73
2023/08/26 01:00:36;;;;;;;216.67;209.57;;;17.40;99.90;;;;;;4974178;28;20452;-73
2023/08/26 01:03:03;;;;;;;180.97;174.97;;;17.10;99.90;;;;;;4974076;28;20472;-72
2023/08/26 01:05:31;;;;;;;189.23;183.03;;;17.00;99.90;;;;;;4974028;28;20455;-73
2023/08/26 01:08:00;;;;;;;193.23;186.77;;;16.80;99.90;;;;;;4973947;28;20459;-72
2023/08/26 01:10:37;;;;;;;201.60;195.10;;;16.70;99.90;;;;;;4973874;28;20463;-73
2023/08/26 01:13:10;;;;;;;209.40;202.70;;;16.60;99.90;;;;;;4973650;28;20478;-73
2023/08/26 01:15:40;;;;;;;222.00;214.90;;;16.50;99.90;;;;;;4973871;28;20459;-73
2023/08/26 01:18:08;;;;;;;210.97;204.17;;;16.40;99.90;;;;;;4973725;28;20455;-73
2023/08/26 01:20:38;;;;;;;213.03;206.23;;;16.30;99.90;;;;;;4973730;28;20542;-73
2023/08/26 01:23:08;;;;;;;220.40;213.37;;;16.20;99.90;;;;;;4973699;28;20451;-72
2023/08/26 01:25:36;;;;;;;212.37;205.57;;;16.10;99.90;;;;;;4973808;28;20485;-73
2023/08/26 01:28:04;;;;;;;201.70;195.20;;;16.00;99.90;;;;;;4973641;28;20455;-72
2023/08/26 01:30:32;;;;;;;193.10;186.90;;;15.90;99.90;;;;;;4973585;28;20491;-72
2023/08/26 01:33:05;;;;;;;193.67;187.47;;;15.70;99.90;;;;;;4973261;28;20479;-72
2023/08/26 01:35:37;;;;;;;177.67;171.87;;;15.60;99.90;;;;;;4973482;28;20916;-73
2023/08/26 01:38:06;;;;;;;165.63;160.13;;;15.50;99.90;;;;;;4973664;28;20848;-72
2023/08/26 01:40:37;;;;;;;167.80;162.27;;;15.40;99.90;;;;;;4973490;28;20451;-73
2023/08/26 01:43:06;;;;;;;160.20;154.80;;;15.20;99.90;;;;;;4973629;28;20463;-73
2023/08/26 01:45:33;;;;;;;159.53;154.30;;;15.10;99.90;;;;;;4973432;28;20832;-73
2023/08/26 01:47:59;;;;;;;153.87;148.77;;;15.00;99.90;;;;;;4973373;28;20961;-73
2023/08/26 01:50:26;;;;;;;146.80;142.00;;;14.90;99.90;;;;;;4973537;28;20448;-72
2023/08/26 01:52:53;;;;;;;145.70;140.90;;;14.80;99.90;;;;;;4973094;28;20514;-71
2023/08/26 01:55:20;;;;;;;151.27;146.27;;;14.70;99.90;;;;;;4973377;28;20514;-72
2023/08/26 01:57:48;;;;;;;147.37;142.50;;;14.70;99.90;;;;;;4973268;28;20451;-70
2023/08/26 02:00:16;;;;;;;140.27;135.67;;;14.70;99.90;;;;;;4973396;28;20455;-72
2023/08/26 02:02:43;;;;;;;128.07;123.87;;;14.60;99.90;;;;;;4973361;28;20450;-73
2023/08/26 02:05:09;;;;;;;133.07;128.67;;;14.70;99.90;;;;;;4973007;28;20458;-73
2023/08/26 02:07:36;;;;;;;140.00;135.40;;;14.60;99.90;;;;;;4973600;28;20538;-72
2023/08/26 02:10:03;;;;;;;138.57;134.00;;;14.60;99.90;;;;;;4973272;28;20958;-72
2023/08/26 02:12:30;;;;;;;137.20;132.70;;;14.50;99.90;;;;;;4973011;28;20939;-73
2023/08/26 02:15:01;;;;;;;143.40;138.70;;;14.40;99.90;;;;;;4973143;28;20890;-73
2023/08/26 02:17:27;;;;;;;134.33;129.93;;;14.40;99.90;;;;;;4973431;28;20523;-72
2023/08/26 02:19:54;;;;;;;138.80;134.23;;;14.40;99.90;;;;;;4973047;28;20824;-72
2023/08/26 02:22:21;;;;;;;142.83;138.13;;;14.40;99.90;;;;;;4973217;28;20455;-73
2023/08/26 02:24:48;;;;;;;148.57;143.67;;;14.30;99.90;;;;;;4973120;28;20970;-72
2023/08/26 02:27:15;;;;;;;159.77;154.53;;;14.20;99.90;;;;;;4973455;28;20808;-73
2023/08/26 02:29:42;;;;;;;159.90;154.67;;;14.10;99.90;;;;;;4972971;28;20455;-73
2023/08/26 02:32:12;;;;;;;172.30;166.70;;;14.00;99.90;;;;;;4972831;28;20538;-72
2023/08/26 02:34:39;;;;;;;176.27;170.57;;;13.90;99.90;;;;;;4972800;28;20519;-73
2023/08/26 02:37:06;;;;;;;183.87;177.97;;;13.80;99.90;;;;;;4972915;28;20457;-73
2023/08/26 02:39:33;;;;;;;195.40;189.13;;;13.80;99.90;;;;;;4973141;28;20842;-72
2023/08/26 02:42:00;;;;;;;200.20;193.80;;;13.70;99.90;;;;;;4972856;28;20539;-73
2023/08/26 02:44:27;;;;;;;212.90;206.20;;;13.60;99.90;;;;;;4973888;28;20451;-73
2023/08/26 02:46:53;;;;;;;224.83;217.73;;;13.50;99.90;;;;;;4976350;28;20536;-73
2023/08/26 02:49:22;;;;;;;224.20;217.20;;;13.50;99.90;;;;;;4976552;28;20514;-73
2023/08/26 02:51:48;;;;;;;235.57;228.17;;;13.50;99.90;;;;;;4976512;28;20494;-73
2023/08/26 02:54:15;;;;;;;243.03;235.43;;;13.60;99.90;;;;;;4976206;28;20565;-73
2023/08/26 02:56:42;;;;;;;256.70;248.60;;;13.40;99.90;;;;;;4976298;28;20461;-73
2023/08/26 02:59:09;;;;;;;251.00;243.10;;;13.40;99.90;;;;;;4976208;28;20494;-73
2023/08/26 03:01:38;;;;;;;258.90;250.70;;;13.30;99.90;;;;;;4975988;28;20853;-73
2023/08/26 03:04:05;;;;;;;267.90;259.40;;;13.30;99.90;;;;;;4976236;28;20921;-73
2023/08/26 03:06:33;;;;;;;283.33;274.23;;;13.30;99.90;;;;;;4976195;28;20451;-73
2023/08/26 03:09:00;;;;;;;291.03;281.73;;;13.20;99.90;;;;;;4976049;28;20461;-73
2023/08/26 03:11:27;;;;;;;289.80;280.50;;;13.10;99.90;;;;;;4976166;28;20491;-73
2023/08/26 03:13:54;;;;;;;296.70;287.13;;;13.10;99.90;;;;;;4975564;28;20835;-72
2023/08/26 03:16:21;;;;;;;301.10;291.30;;;13.10;99.90;;;;;;4975940;28;21007;-72
2023/08/26 03:18:48;;;;;;;307.20;297.20;;;13.00;99.90;;;;;;4975835;28;20455;-72
2023/08/26 03:21:15;;;;;;;318.33;307.90;;;13.00;99.90;;;;;;4976188;28;20538;-71
2023/08/26 03:23:43;;;;;;;333.43;322.43;;;13.00;99.90;;;;;;4975760;28;20447;-73
2023/08/26 03:26:10;;;;;;;309.70;299.50;;;13.00;99.90;;;;;;4975668;28;20947;-74
2023/08/26 03:28:36;;;;;;;301.90;292.00;;;13.10;99.90;;;;;;4975697;28;20892;-72
2023/08/26 03:31:04;;;;;;;307.90;297.80;;;13.10;99.90;;;;;;4975760;28;20453;-74
2023/08/26 03:33:31;;;;;;;319.23;308.70;;;13.00;99.90;;;;;;4975601;28;20483;-74
2023/08/26 03:35:58;;;;;;;311.80;301.50;;;13.00;99.90;;;;;;4975549;28;20495;-74
2023/08/26 03:38:25;;;;;;;321.63;311.03;;;13.00;99.90;;;;;;4975606;28;20462;-73
2023/08/26 03:40:53;;;;;;;328.93;318.00;;;12.90;99.90;;;;;;4975348;28;20452;-74
2023/08/26 03:43:21;;;;;;;331.80;320.80;;;12.90;99.90;;;;;;4975625;28;20451;-74
2023/08/26 03:45:48;;;;;;;324.60;313.77;;;12.90;99.90;;;;;;4975408;28;20482;-74
2023/08/26 03:48:15;;;;;;;315.50;305.03;;;12.80;99.90;;;;;;4975392;28;20461;-73
2023/08/26 03:50:50;;;;;;;330.83;319.83;;;12.80;99.90;;;;;;4975439;28;20490;-74
2023/08/26 03:53:17;;;;;;;323.50;312.70;;;12.80;99.90;;;;;;4975072;28;20486;-74
2023/08/26 03:55:44;;;;;;;330.90;319.80;;;12.80;99.90;;;;;;4984008;28;20450;-74
2023/08/26 03:58:13;;;;;;;325.90;315.00;;;12.80;99.90;;;;;;5014345;28;20476;-74
2023/08/26 04:00:40;;;;;;;331.00;319.90;;;12.80;99.90;;;;;;5014298;28;20453;-74
2023/08/26 04:03:07;;;;;;;332.30;321.20;;;12.80;99.90;;;;;;5014229;28;20453;-74
2023/08/26 04:05:34;;;;;;;335.00;323.73;;;12.90;99.90;;;;;;5014156;28;20810;-73
2023/08/26 04:08:01;;;;;;;331.00;319.90;;;12.90;99.90;;;;;;5013940;28;20464;-74
2023/08/26 04:10:28;;;;;;;320.10;309.50;;;12.90;99.90;;;;;;5014105;28;20458;-73
2023/08/26 04:13:00;;;;;;;320.47;309.77;;;12.90;99.90;;;;;;5013755;28;20457;-74
2023/08/26 04:15:29;;;;;;;320.00;309.30;;;12.90;99.90;;;;;;5013819;28;20457;-73
2023/08/26 04:17:55;;;;;;;322.77;311.97;;;12.90;99.90;;;;;;5013988;28;20475;-74
2023/08/26 04:20:22;;;;;;;325.80;314.90;;;12.80;99.90;;;;;;5014021;28;20519;-74
2023/08/26 04:22:49;;;;;;;318.93;308.23;;;12.90;99.90;;;;;;5013624;28;20457;-74
2023/08/26 04:25:16;;;;;;;323.73;312.87;;;12.90;99.90;;;;;;5013723;28;20453;-74
2023/08/26 04:27:43;;;;;;;319.40;308.70;;;12.90;99.90;;;;;;5013592;28;20540;-72
2023/08/26 04:30:12;;;;;;;316.83;306.23;;;13.00;99.90;;;;;;5013675;28;20544;-74
2023/08/26 04:32:40;;;;;;;317.50;306.90;;;13.00;99.90;;;;;;5013455;28;20457;-74
2023/08/26 04:35:07;;;;;;;312.73;302.33;;;13.00;99.90;;;;;;5013144;28;20489;-72
2023/08/26 04:37:34;;;;;;;320.13;309.43;;;13.00;99.90;;;;;;5013495;28;20786;-74
2023/08/26 04:40:07;;;;;;;314.53;304.03;;;13.00;99.90;;;;;;5013612;28;20511;-73
2023/08/26 04:42:35;;;;;;;310.00;299.60;;;13.00;99.90;;;;;;5013492;28;20457;-73
2023/08/26 04:45:03;;;;;;;314.47;303.97;;;13.10;99.90;;;;;;5013273;28;20445;-74
2023/08/26 04:47:30;;;;;;;298.20;288.20;;;13.20;99.90;;;;;;5013201;28;20931;-74
2023/08/26 04:49:59;;;;;;;302.57;292.37;;;13.20;99.90;;;;;;5013342;28;20456;-74
2023/08/26 04:52:25;;;;;;;290.23;280.53;;;13.30;99.90;;;;;;5013048;28;20471;-74
2023/08/26 04:54:52;;;;;;;284.73;275.23;;;13.40;99.90;;;;;;5013059;28;20558;-75
2023/08/26 04:57:19;;;;;;;287.60;278.00;;;13.50;99.90;;;;;;5013215;28;20920;-73
2023/08/26 04:59:46;;;;;;;280.07;270.67;;;13.60;99.90;;;;;;5013072;28;20544;-74
2023/08/26 05:02:13;;;;;;;271.90;262.80;;;13.60;99.90;;;;;;5012730;28;20453;-73
2023/08/26 05:04:40;;;;;;;255.60;247.00;;;13.50;99.90;;;;;;5013034;28;20481;-74
2023/08/26 05:07:08;;;;;;;257.57;248.97;;;13.50;99.90;;;;;;5012832;28;20536;-74
2023/08/26 05:09:35;;;;;;;262.83;254.13;;;13.40;99.90;;;;;;5012823;28;21008;-74
2023/08/26 05:12:03;;;;;;;265.17;256.40;;;13.40;99.90;;;;;;5012922;28;20548;-74
2023/08/26 05:14:30;;;;;;;270.80;261.90;;;13.30;99.90;;;;;;5012858;28;20531;-73
2023/08/26 05:16:56;;;;;;;266.27;257.50;;;13.30;99.90;;;;;;5012741;28;20454;-74
2023/08/26 05:19:23;;;;;;;278.00;268.87;;;13.30;99.90;;;;;;5012686;28;20456;-74
2023/08/26 05:21:50;;;;;;;296.63;286.83;;;13.30;99.90;;;;;;5012581;28;20941;-74
2023/08/26 05:24:18;;;;;;;284.57;275.17;;;13.30;99.90;;;;;;5012652;28;20449;-74
2023/08/26 05:26:45;;;;;;;324.87;313.87;;;13.30;99.90;;;;;;5012695;28;21023;-74
2023/08/26 05:29:12;;;;;;;336.53;324.80;;;13.50;99.90;;;;;;5012128;28;20453;-74
2023/08/26 05:31:39;;;;;;;277.07;267.20;;;13.80;99.90;;;;;;5012156;28;20906;-74
2023/08/26 05:34:06;;;;;;;276.90;266.80;;;14.10;99.90;;;;;;5012534;28;20481;-73
2023/08/26 05:36:32;;;;;;;257.93;248.40;;;14.40;99.90;;;;;;5012526;28;20493;-73
2023/08/26 05:38:59;;;;;;;261.87;252.20;;;14.70;99.90;;;;;;5012608;28;20492;-73
2023/08/26 05:41:27;;;;;;;269.57;259.17;;;15.00;99.90;;;;;;5012704;28;20461;-73
2023/08/26 05:43:54;;;;;;;104.13;99.87;;;15.20;99.90;;;;;;5012157;28;20446;-73
2023/08/26 05:46:21;;;;;;;38.27;36.43;;;15.40;99.90;;;;;;5012579;28;20452;-73
2023/08/26 05:48:48;;;;;;;27.93;26.53;;;15.50;99.90;;;;;;5012392;28;20532;-73
2023/08/26 05:51:15;;;;;;;25.63;24.23;;;15.60;99.90;;;;;;5012588;28;20449;-74
2023/08/26 05:53:41;;;;;;;21.50;20.13;;;15.70;99.90;;;;;;5012217;28;20468;-74
2023/08/26 05:56:08;;;;;;;18.10;16.93;;;15.80;99.90;;;;;;5012473;28;20966;-73
2023/08/26 05:58:37;;;;;;;30.93;29.10;;;15.70;99.90;;;;;;5012115;28;20913;-73
2023/08/26 06:01:04;;;;;;;19.97;18.93;;;15.80;99.90;;;;;;5012437;28;20479;-73
2023/08/26 06:03:31;;;;;;;17.03;15.90;;;15.70;99.90;;;;;;5012385;28;20472;-73
2023/08/26 06:05:58;;;;;;;12.07;11.03;;;15.80;99.90;;;;;;5012458;28;20449;-73
2023/08/26 06:08:25;;;;;;;11.07;10.23;;;15.60;99.90;;;;;;5012480;28;20446;-74
2023/08/26 06:10:54;;;;;;;11.77;10.90;;;15.60;99.90;;;;;;5012204;28;20537;-72
2023/08/26 06:13:21;;;;;;;14.97;14.00;;;15.60;99.90;;;;;;5012320;28;20450;-73
2023/08/26 06:15:55;;;;;;;18.00;16.80;;;15.50;99.90;;;;;;5012238;28;20487;-73
2023/08/26 06:18:22;;;;;;;24.83;23.53;;;15.60;99.90;;;;;;5012472;28;20511;-73
2023/08/26 06:20:50;;;;;;;43.13;41.33;;;15.60;99.90;;;;;;5015766;28;20453;-73
2023/08/26 06:23:17;;;;;;;30.17;28.43;;;15.70;99.90;;;;;;5016603;28;20794;-72
2023/08/26 06:25:51;;;;;;;21.97;20.83;;;15.60;99.90;;;;;;5016017;28;20445;-73
2023/08/26 06:28:18;;;;;;;21.63;20.40;;;15.60;99.90;;;;;;5016018;28;20500;-73
2023/08/26 06:30:45;;;;;;;16.93;15.73;;;15.60;99.90;;;;;;5016046;28;20453;-74
2023/08/26 06:33:14;;;;;;;12.73;11.40;;;15.70;99.90;;;;;;5013970;28;20989;-73
2023/08/26 06:35:41;;;;;;;9.37;8.47;;;15.70;99.90;;;;;;5015092;28;21006;-73
2023/08/26 06:38:08;;;;;;;14.37;13.23;;;15.70;99.90;;;;;;5015224;28;21007;-73
2023/08/26 06:40:34;;;;;;;11.03;10.13;;;15.70;99.90;;;;;;5015517;28;20457;-73
2023/08/26 06:43:03;;;;;;;11.83;10.93;;;15.80;99.90;;;;;;5015416;28;20457;-72
2023/08/26 06:45:30;;;;;;;12.10;11.30;;;15.90;99.90;;;;;;5015542;28;20504;-73
2023/08/26 06:47:57;;;;;;;8.83;7.07;;;15.90;99.90;;;;;;5015214;28;20480;-74
2023/08/26 06:50:26;;;;;;;9.50;8.03;;;15.90;99.90;;;;;;5015062;28;20457;-73
2023/08/26 06:52:53;;;;;;;13.37;12.50;;;16.00;99.90;;;;;;5014934;28;20552;-73
2023/08/26 06:55:20;;;;;;;12.67;11.70;;;16.00;99.90;;;;;;5015008;28;20481;-72
2023/08/26 06:57:46;;;;;;;17.23;16.13;;;16.00;99.90;;;;;;5014658;28;20486;-74
2023/08/26 07:00:15;;;;;;;9.53;8.50;;;16.10;99.90;;;;;;5014741;28;20455;-73
2023/08/26 07:02:42;;;;;;;10.77;9.87;;;16.10;99.90;;;;;;5014509;28;20449;-73
2023/08/26 07:05:09;;;;;;;19.70;18.50;;;16.10;99.90;;;;;;5013752;28;20446;-73
2023/08/26 07:07:37;;;;;;;12.30;8.40;;;16.20;99.90;;;;;;5012845;28;20460;-73
2023/08/26 07:10:04;;;;;;;8.73;6.23;;;16.20;99.90;;;;;;5014668;28;20472;-74
2023/08/26 07:12:32;;;;;;;8.10;5.63;;;16.30;99.90;;;;;;5014524;28;20456;-73
2023/08/26 07:14:58;;;;;;;5.70;4.83;;;16.30;99.90;;;;;;5014204;28;20484;-74
2023/08/26 07:17:25;;;;;;;8.40;3.93;;;16.40;99.90;;;;;;5014717;28;20512;-74
2023/08/26 07:19:52;;;;;;;7.90;4.40;;;16.40;99.90;;;;;;5014488;28;20828;-73
2023/08/26 07:22:19;;;;;;;10.13;3.43;;;16.50;99.90;;;;;;5014751;28;20822;-73
2023/08/26 07:24:47;;;;;;;9.10;8.30;;;16.60;99.90;;;;;;5014661;28;20869;-73
2023/08/26 07:27:14;;;;;;;10.27;4.60;;;16.60;99.90;;;;;;5014811;28;20456;-72
2023/08/26 07:29:41;;;;;;;6.47;2.77;;;16.70;99.90;;;;;;5014170;28;20549;-73
2023/08/26 07:32:08;;;;;;;15.53;7.00;;;16.70;99.90;;;;;;5014216;28;20454;-73
2023/08/26 07:34:35;;;;;;;6.20;3.43;;;16.80;99.90;;;;;;5013953;28;20476;-73
2023/08/26 07:37:02;;;;;;;6.00;2.50;;;16.80;99.90;;;;;;5014097;28;20457;-73
2023/08/26 07:39:32;;;;;;;8.20;3.67;;;16.90;99.90;;;;;;5013935;28;20492;-73
2023/08/26 07:42:00;;;;;;;6.80;3.70;;;17.00;99.90;;;;;;5014222;28;20449;-73
2023/08/26 07:44:27;;;;;;;10.07;3.00;;;17.10;99.90;;;;;;5014020;28;20446;-74
2023/08/26 07:46:54;;;;;;;9.17;2.53;;;17.20;99.90;;;;;;5013593;28;20455;-73
2023/08/26 07:49:21;;;;;;;6.13;2.90;;;17.20;99.90;;;;;;5013511;28;20446;-74
2023/08/26 07:51:47;;;;;;;8.50;2.30;;;17.30;99.90;;;;;;5014355;28;20892;-74
2023/08/26 07:54:14;;;;;;;7.20;2.30;;;17.30;99.90;;;;;;5013918;28;20450;-74
2023/08/26 07:56:42;;;;;;;6.17;2.13;;;17.50;99.90;;;;;;5014046;28;20456;-72
2023/08/26 07:59:10;;;;;;;4.63;2.00;;;17.70;99.90;;;;;;5014312;28;20449;-73
2023/08/26 08:01:37;;;;;;;5.77;2.20;;;18.00;99.90;;;;;;5014487;28;20548;-73
2023/08/26 08:04:04;;;;;;;13.10;6.70;;;18.40;99.90;;;;;;5014075;28;20472;-75
2023/08/26 08:06:31;;;;;;;7.20;2.97;;;18.60;99.90;;;;;;5014178;28;20929;-74
2023/08/26 08:08:58;;;;;;;10.57;1.97;;;19.00;99.90;;;;;;5014327;28;20536;-74
2023/08/26 08:11:25;;;;;;;9.73;5.30;;;19.30;99.90;;;;;;5013958;28;20461;-74
2023/08/26 08:13:52;;;;;;;12.07;4.30;;;19.70;99.90;;;;;;5013833;28;20456;-74
2023/08/26 08:16:23;;;;;;;13.77;7.20;;;20.00;99.70;;;;;;5013500;28;20495;-74
2023/08/26 08:18:50;;;;;;;6.13;2.30;;;20.30;98.60;;;;;;5014197;28;20548;-75
2023/08/26 08:21:16;;;;;;;9.03;4.63;;;20.40;95.30;;;;;;5013816;28;20532;-75
2023/08/26 08:23:45;;;;;;;9.10;3.57;;;20.50;92.20;;;;;;5013516;28;20454;-75
2023/08/26 08:26:12;;;;;;;7.70;2.23;;;20.80;94.00;;;;;;5014329;28;20450;-75
2023/08/26 08:28:39;;;;;;;8.07;3.80;;;21.00;93.30;;;;;;5014699;28;20454;-80
2023/08/26 08:31:06;;;;;;;10.20;3.70;;;21.10;92.10;;;;;;5014047;28;20809;-74
2023/08/26 08:33:35;;;;;;;8.70;3.40;;;21.20;91.10;;;;;;5013587;28;20451;-74
2023/08/26 08:36:03;;;;;;;9.33;4.10;;;21.40;91.10;;;;;;5013526;28;20582;-74
2023/08/26 08:38:30;;;;;;;6.67;2.17;;;21.80;89.70;;;;;;5013344;28;20527;-74
2023/08/26 08:40:58;;;;;;;4.97;1.20;;;21.80;87.70;;;;;;5013598;28;20461;-73
2023/08/26 08:43:30;;;;;;;7.10;1.80;;;21.80;86.10;;;;;;5012604;28;20544;-74
2023/08/26 08:45:58;;;;;;;4.70;1.47;;;21.80;86.30;;;;;;5013295;28;20906;-74
2023/08/26 08:48:25;;;;;;;5.87;1.40;;;22.10;88.00;;;;;;5013216;28;20454;-74
2023/08/26 08:50:55;;;;;;;5.97;1.53;;;22.40;80.40;;;;;;5013301;28;20453;-75
2023/08/26 08:53:29;;;;;;;4.73;1.30;;;22.10;63.70;;;;;;5013201;28;20461;-74
2023/08/26 08:56:00;;;;;;;6.67;1.23;;;22.40;64.00;;;;;;5012856;28;20481;-73
2023/08/26 08:58:29;;;;;;;6.50;1.63;;;22.40;60.90;;;;;;5013374;28;20457;-74
2023/08/26 09:00:57;;;;;;;8.13;1.87;;;22.40;60.30;;;;;;5013255;28;20827;-71
2023/08/26 09:03:24;;;;;;;13.00;1.50;;;22.50;55.60;;;;;;5012298;28;20454;-75
2023/08/26 09:05:53;;;;;;;5.50;1.53;;;22.60;55.70;;;;;;5012328;28;20499;-76
2023/08/26 09:08:22;;;;;;;5.37;1.47;;;22.80;55.80;;;;;;5012555;28;20479;-74
2023/08/26 09:10:49;;;;;;;5.30;1.33;;;22.80;51.80;;;;;;5013137;28;20456;-75
2023/08/26 09:13:16;;;;;;;5.60;1.20;;;23.20;55.60;;;;;;5012696;28;20955;-75
2023/08/26 09:15:43;;;;;;;5.23;1.23;;;23.30;56.10;;;;;;5013092;28;20489;-74
2023/08/26 09:18:11;;;;;;;4.60;1.30;;;23.60;47.80;;;;;;5013262;28;20540;-74
2023/08/26 09:20:39;;;;;;;5.50;1.23;;;23.50;47.70;;;;;;5012978;28;20457;-74
2023/08/26 09:23:08;;;;;;;6.83;1.23;;;23.40;43.20;;;;;;5012655;28;20876;-75
2023/08/26 09:25:36;;;;;;;5.30;1.20;;;23.40;47.50;;;;;;5012880;28;20476;-74
2023/08/26 09:28:06;;;;;;;4.40;1.00;;;23.80;42.20;;;;;;5012844;28;20971;-75
2023/08/26 09:30:32;;;;;;;6.00;1.40;;;24.00;43.70;;;;;;5012673;28;20453;-75
2023/08/26 09:32:59;;;;;;;9.00;1.70;;;23.90;38.90;;;;;;5012549;28;20460;-74
2023/08/26 09:35:26;;;;;;;9.77;1.60;;;24.00;39.10;;;;;;5012325;28;20914;-74
2023/08/26 09:37:59;;;;;;;5.60;1.37;;;24.00;45.70;;;;;;5012639;28;20480;-74
2023/08/26 09:40:28;;;;;;;4.60;1.10;;;24.20;40.00;;;;;;5011995;28;20450;-75
2023/08/26 09:42:57;;;;;;;5.40;1.20;;;24.20;39.20;;;;;;5012173;28;20449;-75
2023/08/26 09:45:24;;;;;;;4.70;1.17;;;24.50;39.50;;;;;;5012163;28;20450;-75
2023/08/26 09:47:55;;;;;;;8.13;1.00;;;24.40;33.40;;;;;;5012322;28;20496;-74
2023/08/26 09:50:31;;;;;;;4.50;0.93;;;24.20;30.00;;;;;;5012317;28;20507;-74
2023/08/26 09:52:58;;;;;;;8.13;1.40;;;24.00;29.80;;;;;;5013007;28;20457;-74
2023/08/26 09:55:25;;;;;;;4.40;1.10;;;24.10;30.00;;;;;;5016715;28;20486;-74
2023/08/26 09:57:53;;;;;;;4.40;1.10;;;23.40;29.50;;;;;;5016570;28;20531;-74
2023/08/26 10:00:21;;;;;;;5.60;1.63;;;23.70;29.60;;;;;;5016119;28;20991;-75
2023/08/26 10:02:49;;;;;;;4.13;0.87;;;24.00;29.90;;;;;;5016358;28;20460;-74
2023/08/26 10:05:18;;;;;;;4.87;1.00;;;24.00;28.80;;;;;;5015912;28;20730;-73
2023/08/26 10:07:48;;;;;;;4.50;1.20;;;24.30;22.80;;;;;;5015901;28;20454;-73
2023/08/26 10:10:19;;;;;;;6.23;1.00;;;24.60;23.00;;;;;;5016064;28;20461;-73
2023/08/26 10:12:51;;;;;;;4.73;1.30;;;24.40;22.90;;;;;;5016121;28;20477;-73
2023/08/26 10:15:20;;;;;;;4.30;1.00;;;24.70;23.10;;;;;;5016306;28;20936;-73
2023/08/26 10:17:51;;;;;;;4.67;0.87;;;25.10;23.40;;;;;;5015882;28;20946;-73
2023/08/26 10:20:19;;;;;;;4.80;1.20;;;25.00;15.80;;;;;;5016239;28;20535;-73
2023/08/26 10:22:47;;;;;;;5.60;1.07;;;25.20;21.40;;;;;;5016153;28;20543;-74
2023/08/26 10:25:14;;;;;;;5.83;0.90;;;25.60;22.80;;;;;;5015775;28;20444;-74
2023/08/26 10:27:43;;;;;;;5.03;0.90;;;25.70;16.20;;;;;;5015923;28;20449;-73
2023/08/26 10:30:11;;;;;;;4.63;1.00;;;25.60;16.10;;;;;;5015931;28;20463;-73
2023/08/26 10:32:46;;;;;;;5.97;1.27;;;25.50;16.10;;;;;;5016365;28;20503;-70
2023/08/26 10:35:14;;;;;;;6.10;1.00;;;25.80;16.20;;;;;;5015728;28;20826;-72
2023/08/26 10:37:41;;;;;;;5.50;1.00;;;27.00;20.70;;;;;;5015737;28;20500;-73
2023/08/26 10:40:12;;;;;;;5.20;0.93;;;26.50;9.00;;;;;;5015622;28;20457;-71
2023/08/26 10:42:39;;;;;;;4.63;1.23;;;26.70;6.00;;;;;;5015955;28;20508;-70
2023/08/26 10:45:14;;;;;;;4.40;1.00;;;26.90;9.20;;;;;;5015485;28;20986;-72
2023/08/26 10:47:45;;;;;;;5.60;0.90;;;26.80;9.80;;;;;;5015679;28;20452;-74
2023/08/26 10:50:19;;;;;;;4.60;1.10;;;25.80;8.60;;;;;;5002507;28;20450;-72
2023/08/26 10:52:53;;;;;;;6.40;1.23;;;25.80;8.60;;;;;;4995522;28;20469;-74
2023/08/26 10:55:22;;;;;;;4.77;1.10;;;24.90;8.10;;;;;;4995399;28;20465;-72
2023/08/26 10:58:09;;;;;;;5.30;1.20;;;24.70;11.90;;;;;;4995519;28;20450;-73
2023/08/26 11:00:38;;;;;;;8.63;2.40;;;25.20;15.90;;;;;;4995366;28;20451;-73
2023/08/26 11:03:08;;;;;;;5.10;1.10;;;25.10;15.70;;;;;;4994776;28;20450;-74
2023/08/26 11:05:36;;;;;;;6.20;1.70;;;24.30;15.30;;;;;;4993755;28;20537;-72
2023/08/26 11:08:03;;;;;;;6.60;1.73;;;24.10;15.20;;;;;;4994949;28;20850;-73
2023/08/26 11:10:32;;;;;;;5.13;1.17;;;23.80;18.40;;;;;;4994589;28;20461;-75
2023/08/26 11:13:00;;;;;;;4.87;1.20;;;24.40;16.30;;;;;;4994774;28;20473;-75
2023/08/26 11:15:30;;;;;;;10.73;2.03;;;25.80;16.20;;;;;;4994448;28;20457;-74
2023/08/26 11:17:58;;;;;;;9.23;1.67;;;26.60;9.00;;;;;;4995225;28;20488;-73
2023/08/26 11:20:27;;;;;;;6.07;1.20;;;28.20;8.20;;;;;;4995171;28;20454;-73
2023/08/26 11:22:55;;;;;;;5.50;1.33;;;29.00;2.40;;;;;;4995064;28;20450;-75
2023/08/26 11:25:24;;;;;;;7.17;1.40;;;29.90;1.00;;;;;;4995116;28;20486;-75
2023/08/26 11:27:52;;;;;;;7.13;1.40;;;30.70;1.00;;;;;;4995183;28;20450;-73
2023/08/26 11:30:19;;;;;;;5.83;1.30;;;31.00;1.00;;;;;;4995450;28;20465;-74
2023/08/26 11:32:50;;;;;;;6.23;1.10;;;31.60;1.00;;;;;;4995148;28;20541;-73
2023/08/26 11:35:18;;;;;;;7.40;1.93;;;30.70;1.00;;;;;;4995072;28;20451;-73
2023/08/26 11:37:48;;;;;;;5.53;1.40;;;29.30;1.00;;;;;;4995290;28;20451;-73
2023/08/26 11:40:16;;;;;;;8.00;1.90;;;28.20;1.00;;;;;;4995184;28;20454;-74
2023/08/26 11:42:43;;;;;;;6.80;1.87;;;27.00;1.00;;;;;;4994909;28;20460;-74
2023/08/26 11:45:11;;;;;;;7.10;1.60;;;25.90;1.00;;;;;;4994727;28;20486;-73
2023/08/26 11:47:38;;;;;;;7.27;1.50;;;25.20;1.00;;;;;;4994869;28;20493;-73
2023/08/26 11:50:06;;;;;;;7.77;2.20;;;25.30;5.00;;;;;;4994850;28;20456;-72
2023/08/26 11:52:33;;;;;;;8.83;2.13;;;26.50;8.70;;;;;;4994726;28;20485;-72
2023/08/26 11:55:05;;;;;;;6.03;1.43;;;27.20;1.40;;;;;;4994623;28;20458;-74
2023/08/26 11:57:35;;;;;;;4.33;1.13;;;27.30;1.00;;;;;;4994851;28;20483;-72
2023/08/26 12:00:10;;;;;;;6.50;1.40;;;27.70;1.00;;;;;;4994747;28;20457;-72
2023/08/26 12:02:37;;;;;;;4.80;1.23;;;26.80;1.00;;;;;;4994553;28;20457;-72
2023/08/26 12:05:05;;;;;;;4.40;1.00;;;26.10;1.00;;;;;;4994334;28;20942;-73
2023/08/26 12:07:32;;;;;;;5.07;1.20;;;25.40;1.00;;;;;;4993939;28;20452;-72
2023/08/26 12:10:09;;;;;;;5.13;1.23;;;25.10;8.10;;;;;;4994492;28;20502;-73
2023/08/26 12:12:36;;;;;;;6.40;1.30;;;25.10;8.20;;;;;;4994498;28;20540;-72
2023/08/26 12:15:08;;;;;;;5.03;1.30;;;25.60;8.50;;;;;;4994384;28;20459;-72
2023/08/26 12:17:43;;;;;;;5.33;1.50;;;25.60;6.10;;;;;;4992494;28;20525;-71
2023/08/26 12:20:25;;;;;;;5.30;1.40;;;26.40;6.30;;;;;;4995906;28;20440;-72
2023/08/26 12:22:53;;;;;;;6.57;1.10;;;28.20;2.00;;;;;;4993482;28;20465;-73
2023/08/26 12:25:30;;;;;;;5.57;1.13;;;29.00;1.10;;;;;;4993329;28;20446;-74
2023/08/26 12:28:12;;;;;;;6.13;1.43;;;28.90;1.00;;;;;;4995827;28;20504;-72
2023/08/26 12:30:40;;;;;;;5.50;1.30;;;30.30;1.00;;;;;;4995709;28;20532;-72
2023/08/26 12:33:08;;;;;;;8.10;2.00;;;30.90;1.00;;;;;;4994323;28;20456;-69